Time;durP1;ratioP1;P1;durP2;ratioP2;P2;SDS_P1;SDS_P2;PMS_P1;PMS_P2;Temp;Humidity;BMP_temperature;BMP_pressure;BME280_temperature;BME280_humidity;BME280_pressure;Samples;Min_cycle;Max_cycle;Signal;HPM_P1;HPM_P2
2022/10/15 00:01:47;;;;;;;36.65;27.33;;;16.70;99.90;;;17.08;84.24;100602.56;5035950;28;20042;-70
2022/10/15 00:04:16;;;;;;;32.05;25.35;;;16.70;99.90;;;17.11;84.19;100593.59;5036025;28;20042;-69
2022/10/15 00:06:44;;;;;;;35.42;26.83;;;16.70;99.90;;;17.05;84.45;100597.31;5035996;28;20030;-69
2022/10/15 00:09:14;;;;;;;32.80;25.55;;;16.70;99.90;;;17.09;84.42;100596.28;5034800;28;20053;-70
2022/10/15 00:11:42;;;;;;;32.50;26.15;;;16.70;99.90;;;17.10;84.54;100606.06;5035618;28;20510;-69
2022/10/15 00:14:10;;;;;;;41.40;27.00;;;16.70;99.90;;;17.07;84.59;100595.47;5035891;28;20056;-69
2022/10/15 00:16:39;;;;;;;35.47;26.98;;;16.70;99.90;;;17.10;84.62;100599.84;5035519;28;20060;-69
2022/10/15 00:19:07;;;;;;;32.42;26.77;;;16.70;99.90;;;17.09;84.93;100598.09;5035757;28;20033;-69
2022/10/15 00:21:36;;;;;;;36.22;28.65;;;16.70;99.90;;;17.05;85.05;100600.00;5035336;28;20375;-69
2022/10/15 00:24:05;;;;;;;37.63;27.65;;;16.70;99.90;;;17.09;85.30;100598.09;5035540;28;20034;-69
2022/10/15 00:26:35;;;;;;;36.58;28.60;;;16.70;99.90;;;17.07;85.50;100597.28;5035518;28;20506;-69
2022/10/15 00:29:04;;;;;;;35.88;27.98;;;16.70;99.90;;;17.07;85.45;100590.13;5035481;28;20503;-69
2022/10/15 00:31:33;;;;;;;38.83;28.70;;;16.70;99.90;;;17.08;85.76;100591.00;5035654;28;20037;-69
2022/10/15 00:34:02;;;;;;;35.13;27.92;;;16.70;99.90;;;17.07;85.85;100583.94;5034044;28;20487;-69
2022/10/15 00:36:33;;;;;;;33.80;28.00;;;16.70;99.90;;;17.09;85.82;100582.91;5035668;28;20498;-69
2022/10/15 00:39:04;;;;;;;36.00;28.70;;;16.70;99.90;;;16.85;86.12;100541.06;5035465;28;20049;-69
2022/10/15 00:41:36;;;;;;;34.63;29.55;;;16.70;99.90;;;17.07;86.31;100584.78;5050815;28;20072;-69
2022/10/15 00:44:47;;;;;;;40.58;29.38;;;16.70;99.90;;;17.04;86.58;100582.22;5034033;28;20076;-69
2022/10/15 00:47:19;;;;;;;36.78;29.90;;;16.70;99.90;;;17.08;86.77;100585.66;5032758;28;20045;-69
2022/10/15 00:49:54;;;;;;;38.95;28.38;;;16.70;99.90;;;17.08;86.95;100586.53;5035071;28;20049;-69
2022/10/15 00:52:27;;;;;;;40.03;30.23;;;16.70;99.90;;;17.11;86.91;100580.22;5033924;28;20052;-69
2022/10/15 00:55:00;;;;;;;39.65;30.50;;;16.70;99.90;;;17.02;87.01;100581.41;5034798;28;20510;-69
2022/10/15 00:57:31;;;;;;;39.53;29.70;;;16.70;99.90;;;17.01;87.40;100582.31;5033698;28;20471;-69
2022/10/15 01:00:08;;;;;;;37.83;28.92;;;16.70;99.90;;;17.01;87.48;100568.94;5033678;28;20068;-70
2022/10/15 01:02:36;;;;;;;41.10;31.77;;;16.70;99.90;;;17.00;87.47;100577.91;5034473;28;20048;-69
2022/10/15 01:05:06;;;;;;;43.33;31.27;;;16.70;99.90;;;17.01;87.74;100576.13;5034808;28;20471;-69
2022/10/15 01:07:34;;;;;;;40.57;29.97;;;16.60;99.90;;;16.96;87.71;100568.25;5034753;28;20068;-69
2022/10/15 01:10:04;;;;;;;41.30;30.25;;;16.60;99.90;;;17.04;87.64;100562.63;5034677;28;20303;-69
2022/10/15 01:12:52;;;;;;;37.97;29.65;;;16.70;99.90;;;17.04;87.63;100566.19;5034919;28;20084;-70
2022/10/15 01:15:29;;;;;;;37.78;29.83;;;16.70;99.90;;;16.99;87.77;100564.63;5049894;28;20054;-69
2022/10/15 01:18:03;;;;;;;36.35;30.35;;;16.70;99.90;;;16.99;87.96;100560.13;5034676;28;20072;-69
2022/10/15 01:21:09;;;;;;;43.45;30.90;;;16.70;99.90;;;17.06;87.94;100571.47;5033586;28;20049;-70
2022/10/15 01:24:52;;;;;;;39.72;30.65;;;16.70;99.90;;;17.02;88.00;100556.47;5035305;28;20125;-70
2022/10/15 01:27:36;;;;;;;43.38;31.92;;;16.70;99.90;;;16.99;88.26;100548.59;5035447;28;20475;-70
2022/10/15 01:30:30;;;;;;;41.75;31.50;;;16.70;99.90;;;16.85;88.47;100527.69;5050497;28;20049;-70
2022/10/15 01:33:27;;;;;;;38.50;29.73;;;16.60;99.90;;;16.99;88.77;100556.59;5034873;28;20506;-70
2022/10/15 01:36:07;;;;;;;46.38;30.02;;;16.60;99.90;;;17.03;88.38;100551.06;5026271;28;20144;-72
2022/10/15 01:38:48;;;;;;;41.80;32.05;;;16.70;99.90;;;17.05;88.26;100546.53;5035024;28;20084;-70
2022/10/15 01:41:26;;;;;;;35.75;30.77;;;16.70;99.90;;;17.07;88.04;100551.84;5034882;28;20479;-70
2022/10/15 01:44:01;;;;;;;39.03;31.90;;;16.70;99.90;;;16.89;88.14;100521.31;5033430;28;20145;-70
2022/10/15 01:46:58;;;;;;;39.90;31.30;;;16.70;99.90;;;16.77;88.09;100505.72;5015270;28;20140;-70
2022/10/15 01:49:31;;;;;;;38.65;30.40;;;16.70;99.90;;;16.97;88.40;100545.09;5033515;28;20052;-70
2022/10/15 01:52:09;;;;;;;39.88;31.60;;;16.60;99.90;;;16.96;88.39;100537.97;5050170;28;20395;-70
2022/10/15 01:54:38;;;;;;;41.15;31.10;;;16.60;99.90;;;16.96;88.52;100538.88;5050072;28;20458;-70
2022/10/15 01:57:08;;;;;;;40.30;30.05;;;16.60;99.90;;;16.94;88.70;100532.69;5033108;28;20438;-70
2022/10/15 01:59:36;;;;;;;35.10;28.75;;;16.60;99.90;;;16.85;88.63;100524.13;5034711;28;20048;-70
2022/10/15 02:02:06;;;;;;;35.72;28.92;;;16.60;99.90;;;16.82;88.85;100532.28;5034417;28;20372;-70
2022/10/15 02:04:35;;;;;;;34.97;28.50;;;16.60;99.90;;;16.62;88.85;100487.56;5049456;28;20041;-71
2022/10/15 02:07:07;;;;;;;39.03;27.92;;;16.50;99.90;;;16.89;88.75;100521.31;5049699;28;20490;-70
2022/10/15 02:09:50;;;;;;;37.40;27.95;;;16.60;99.90;;;16.88;88.57;100524.00;5034421;28;20091;-71
2022/10/15 02:12:32;;;;;;;35.80;28.67;;;16.50;99.90;;;16.76;88.64;100508.44;5034321;28;20037;-70
2022/10/15 02:15:10;;;;;;;36.15;29.38;;;16.50;99.90;;;16.73;89.05;100509.41;5032990;28;20168;-70
2022/10/15 02:17:46;;;;;;;38.63;31.45;;;16.40;99.90;;;16.76;89.08;100513.78;5049581;28;20068;-70
2022/10/15 02:20:21;;;;;;;37.58;30.17;;;16.40;99.90;;;16.73;89.24;100501.41;5033879;28;20064;-70
2022/10/15 02:22:56;;;;;;;36.72;30.35;;;16.40;99.90;;;16.64;89.26;100479.50;5032775;28;20099;-71
2022/10/15 02:25:25;;;;;;;38.92;30.05;;;16.40;99.90;;;16.52;89.45;100458.56;5049473;28;20055;-70
2022/10/15 02:27:56;;;;;;;39.60;30.83;;;16.40;99.90;;;16.66;89.91;100491.00;5033968;28;20049;-70
2022/10/15 02:30:29;;;;;;;40.78;32.33;;;16.40;99.90;;;16.68;90.00;100487.34;5033762;28;20407;-70
2022/10/15 02:32:59;;;;;;;37.67;30.50;;;16.30;99.90;;;16.70;89.88;100480.16;5032633;28;20064;-70
2022/10/15 02:35:28;;;;;;;39.70;31.85;;;16.30;99.90;;;16.70;89.74;100484.63;5032805;28;20141;-70
2022/10/15 02:38:02;;;;;;;39.63;31.52;;;16.30;99.90;;;16.62;89.78;100482.22;5049245;28;20053;-70
2022/10/15 02:40:35;;;;;;;38.47;30.55;;;16.30;99.90;;;16.58;90.09;100472.56;5032793;28;20529;-71
2022/10/15 02:43:06;;;;;;;42.00;30.30;;;16.30;99.90;;;16.56;89.89;100479.78;5032605;28;20049;-70
2022/10/15 02:45:35;;;;;;;41.60;30.73;;;16.20;99.90;;;16.55;90.05;100477.16;5032211;28;20041;-70
2022/10/15 02:48:06;;;;;;;36.60;28.90;;;16.20;99.90;;;16.55;89.91;100480.69;5049333;28;20107;-70
2022/10/15 02:50:35;;;;;;;37.90;29.30;;;16.20;99.90;;;16.59;89.72;100476.97;5032598;28;20591;-70
2022/10/15 02:53:04;;;;;;;36.88;29.13;;;16.20;99.90;;;16.56;89.58;100474.44;5032341;28;20045;-71
2022/10/15 02:55:34;;;;;;;35.22;27.30;;;16.20;99.90;;;16.55;89.53;100471.81;5048611;28;20046;-70
2022/10/15 02:58:02;;;;;;;34.80;28.10;;;16.20;99.90;;;16.51;89.41;100462.16;5033518;28;20440;-70
2022/10/15 03:00:31;;;;;;;34.95;28.20;;;16.20;99.90;;;16.48;89.33;100473.81;5048827;28;20522;-70
2022/10/15 03:02:59;;;;;;;32.97;27.52;;;16.20;99.90;;;16.53;89.13;100460.31;5048698;28;20045;-71
2022/10/15 03:05:30;;;;;;;36.38;29.75;;;16.20;99.90;;;16.53;89.22;100466.50;5032193;28;20045;-70
2022/10/15 03:08:00;;;;;;;34.55;29.17;;;16.10;99.90;;;16.48;89.36;100457.81;5049067;28;20402;-70
2022/10/15 03:10:29;;;;;;;;;;;16.10;99.90;;;16.45;89.24;100454.34;5048624;28;20586;-70
2022/10/15 03:13:03;;;;;;;37.22;28.10;;;16.10;99.90;;;16.43;89.34;100457.06;5032050;28;19921;-71
2022/10/15 03:15:36;;;;;;;36.05;28.05;;;16.10;99.90;;;16.32;89.48;100445.03;5032209;28;20469;-70
2022/10/15 03:18:05;;;;;;;39.58;29.30;;;16.10;99.90;;;16.30;89.66;100449.53;5048691;28;20328;-71
2022/10/15 03:20:36;;;;;;;40.15;29.48;;;16.00;99.90;;;16.28;89.96;100457.56;5048667;28;20069;-71
2022/10/15 03:23:05;;;;;;;35.53;28.73;;;16.00;99.90;;;16.31;89.97;100452.16;5032098;28;20095;-70
2022/10/15 03:25:33;;;;;;;39.03;31.08;;;16.00;99.90;;;16.30;90.13;100452.19;5031959;28;20140;-70
2022/10/15 03:28:04;;;;;;;37.97;30.02;;;15.90;99.90;;;16.24;90.28;100439.91;5031978;28;20048;-70
2022/10/15 03:30:40;;;;;;;38.05;29.52;;;15.90;99.90;;;16.30;90.13;100449.53;5033219;28;20045;-70
2022/10/15 03:33:08;;;;;;;37.65;29.77;;;15.90;99.90;;;16.31;90.32;100443.25;5031722;28;20085;-70
2022/10/15 03:35:39;;;;;;;37.28;29.70;;;15.90;99.90;;;16.31;90.43;100457.47;5031894;28;20490;-70
2022/10/15 03:38:09;;;;;;;39.22;29.13;;;15.90;99.90;;;16.27;90.37;100459.41;5048395;28;20556;-72
2022/10/15 03:40:38;;;;;;;35.22;28.58;;;15.90;99.90;;;16.28;90.29;100460.25;5031845;28;20052;-71
2022/10/15 03:43:26;;;;;;;36.08;27.73;;;15.90;99.90;;;16.23;90.23;100460.41;5025339;28;20069;-70
2022/10/15 03:45:56;;;;;;;37.50;28.85;;;15.90;99.90;;;16.27;90.14;100471.84;5031989;28;20136;-70
2022/10/15 03:48:25;;;;;;;36.38;28.63;;;15.90;99.90;;;16.25;90.43;100466.56;5048309;28;20092;-70
2022/10/15 03:50:55;;;;;;;35.58;28.65;;;15.90;99.90;;;16.27;90.30;100471.84;5048422;28;20053;-71
2022/10/15 03:53:23;;;;;;;35.37;28.60;;;15.90;99.90;;;16.27;90.32;100474.53;5031420;28;20145;-71
2022/10/15 03:55:51;;;;;;;36.15;28.27;;;15.90;99.90;;;16.27;90.65;100472.75;5032966;28;20469;-70
2022/10/15 03:58:20;;;;;;;38.80;29.50;;;15.90;99.90;;;16.22;91.19;100464.00;5031903;28;20045;-70
2022/10/15 04:00:54;;;;;;;36.20;29.30;;;15.90;99.90;;;16.24;91.86;100478.16;5031365;28;20041;-70
2022/10/15 04:03:23;;;;;;;38.92;29.58;;;15.90;99.90;;;16.25;92.43;100468.38;5031561;28;20099;-71
2022/10/15 04:05:54;;;;;;;39.42;29.30;;;15.90;99.90;;;16.21;93.25;100477.41;5031569;28;20041;-70
2022/10/15 04:08:28;;;;;;;36.30;28.63;;;15.80;99.90;;;16.15;93.78;100462.47;5048391;28;20045;-70
2022/10/15 04:10:58;;;;;;;35.28;29.20;;;15.90;99.90;;;16.24;93.97;100470.16;5031560;28;20052;-70
2022/10/15 04:13:27;;;;;;;40.25;29.90;;;15.90;99.90;;;16.27;94.33;100478.06;5032555;28;20503;-70
2022/10/15 04:15:56;;;;;;;31.70;28.02;;;15.90;99.90;;;16.28;94.32;100463.78;5031730;28;20099;-70
2022/10/15 04:18:24;;;;;;;35.83;31.13;;;16.00;99.90;;;16.36;94.56;100474.19;5031428;28;20061;-71
2022/10/15 04:20:59;;;;;;;36.50;30.52;;;16.00;99.90;;;16.40;94.45;100465.16;5033724;28;20057;-70
2022/10/15 04:23:27;;;;;;;36.70;29.58;;;16.00;99.90;;;16.14;94.52;100412.66;5035117;28;20080;-71
2022/10/15 04:26:14;;;;;;;39.13;31.75;;;16.00;99.90;;;16.28;94.79;100454.91;5036080;28;20127;-71
2022/10/15 04:28:43;;;;;;;35.88;30.63;;;16.00;99.90;;;16.32;94.85;100455.69;5036442;28;20056;-70
2022/10/15 04:31:11;;;;;;;37.38;31.10;;;16.00;99.90;;;16.24;95.06;100437.25;5036133;28;20041;-71
2022/10/15 04:33:40;;;;;;;33.97;30.20;;;16.00;99.90;;;16.19;95.02;100431.22;5034673;28;20058;-72
2022/10/15 04:36:13;;;;;;;33.45;29.85;;;16.10;99.90;;;16.41;94.90;100458.03;5051669;28;20041;-71
2022/10/15 04:39:03;;;;;;;40.45;32.67;;;16.10;99.90;;;16.31;95.08;100451.25;5031676;28;20045;-71
2022/10/15 04:41:41;;;;;;;35.97;32.13;;;16.00;99.90;;;16.27;95.34;100451.38;5051410;28;20045;-71
2022/10/15 04:44:21;;;;;;;40.47;33.58;;;16.00;99.90;;;16.30;95.39;100447.72;5051281;28;20041;-71
2022/10/15 04:46:54;;;;;;;36.30;30.38;;;16.00;99.90;;;16.22;95.47;100439.09;5034937;28;20049;-70
2022/10/15 04:49:33;;;;;;;35.78;31.65;;;15.90;99.90;;;16.34;95.46;100445.84;5034715;28;20041;-71
2022/10/15 04:52:08;;;;;;;36.85;32.17;;;16.00;99.90;;;16.33;95.43;100442.28;5051101;28;20080;-71
2022/10/15 04:54:43;;;;;;;36.92;31.45;;;16.00;99.90;;;16.26;95.23;100438.94;5034510;28;20073;-70
2022/10/15 04:57:13;;;;;;;;;;;16.00;99.90;;;16.09;95.57;100432.44;5051627;28;20149;-71
2022/10/15 04:59:43;;;;;;;37.53;30.95;;;15.90;99.90;;;16.13;95.76;100432.28;5034470;28;19921;-71
2022/10/15 05:02:31;;;;;;;40.50;33.20;;;15.90;99.90;;;16.11;96.03;100435.94;5035400;28;20075;-70
2022/10/15 05:05:38;;;;;;;39.17;30.83;;;15.80;99.90;;;15.55;95.78;100348.94;5029133;28;20049;-71
2022/10/15 05:08:08;;;;;;;37.67;31.40;;;15.80;99.90;;;16.03;95.74;100428.19;5050841;28;20045;-71
2022/10/15 05:11:01;;;;;;;37.70;30.52;;;15.80;99.90;;;16.11;95.38;100438.59;5035462;28;20053;-70
2022/10/15 05:13:31;;;;;;;38.08;30.40;;;15.80;99.90;;;16.14;95.25;100439.34;5035159;28;20054;-70
2022/10/15 05:16:09;;;;;;;;;;;15.80;99.90;;;16.11;95.18;100433.25;5051401;28;20072;-70
2022/10/15 05:18:37;;;;;;;36.50;31.00;;;15.80;99.90;;;15.90;95.05;100389.50;5050709;28;20020;-70
2022/10/15 05:21:06;;;;;;;35.63;30.15;;;15.80;99.90;;;16.24;94.85;100437.25;5034009;28;20514;-70
2022/10/15 05:23:37;;;;;;;35.58;30.15;;;15.90;99.90;;;16.25;94.92;100437.22;5033963;28;20467;-71
2022/10/15 05:26:31;;;;;;;37.83;31.95;;;15.90;99.90;;;16.28;94.57;100425.53;5036533;28;20049;-70
2022/10/15 05:29:00;;;;;;;35.85;31.30;;;16.00;99.90;;;16.30;94.29;100420.19;5033927;28;20430;-70
2022/10/15 05:31:33;;;;;;;37.35;31.23;;;16.00;99.90;;;16.33;94.04;100422.72;5033874;28;20041;-71
2022/10/15 05:34:13;;;;;;;37.08;31.70;;;16.00;99.90;;;16.25;93.98;100417.66;5033179;28;20479;-71
2022/10/15 05:36:47;;;;;;;37.08;31.70;;;15.90;99.90;;;16.08;94.12;100414.69;5033780;28;20479;-71
2022/10/15 05:39:17;;;;;;;36.00;30.98;;;15.90;99.90;;;16.09;94.98;100416.44;5033692;28;20049;-70
2022/10/15 05:41:46;;;;;;;34.70;30.85;;;15.80;99.90;;;15.56;95.01;100338.25;5034894;28;20037;-70
2022/10/15 05:44:14;;;;;;;34.75;30.48;;;15.80;99.90;;;16.06;95.33;100424.56;5034691;28;20041;-70
2022/10/15 05:46:43;;;;;;;32.35;28.42;;;15.80;99.90;;;16.02;95.60;100431.78;5033479;28;20483;-71
2022/10/15 05:49:18;;;;;;;36.85;29.77;;;15.80;99.90;;;15.95;95.76;100443.56;5033523;28;20053;-71
2022/10/15 05:52:01;;;;;;;33.15;29.30;;;15.80;99.90;;;15.90;96.33;100445.53;5033465;28;20046;-72
2022/10/15 05:54:48;;;;;;;36.67;29.58;;;15.70;99.90;;;15.87;96.78;100432.28;5033282;28;20049;-70
2022/10/15 05:57:16;;;;;;;37.67;31.63;;;15.60;99.90;;;15.91;96.80;100420.59;5034890;28;20124;-71
2022/10/15 05:59:45;;;;;;;34.65;30.08;;;15.60;99.90;;;16.00;96.57;100430.09;5033202;28;20518;-70
2022/10/15 06:02:15;;;;;;;31.88;26.30;;;15.70;99.90;;;15.49;96.19;100331.34;5034493;28;20099;-70
2022/10/15 06:04:43;;;;;;;35.42;27.58;;;15.70;99.90;;;15.86;96.19;100411.88;5034184;28;20037;-70
2022/10/15 06:07:12;;;;;;;36.38;27.85;;;15.70;99.90;;;15.68;96.83;100377.81;5034081;28;20037;-71
2022/10/15 06:09:40;;;;;;;32.45;27.08;;;15.60;99.90;;;15.67;97.44;100410.75;5033036;28;20539;-71
2022/10/15 06:12:10;;;;;;;35.92;28.40;;;15.50;99.90;;;15.66;97.79;100408.97;5033929;28;20052;-70
2022/10/15 06:14:38;;;;;;;33.33;28.08;;;15.50;99.90;;;15.73;98.15;100413.22;5034218;28;20052;-71
2022/10/15 06:17:07;;;;;;;33.65;26.95;;;15.50;99.90;;;15.74;98.12;100428.28;5034164;28;20139;-70
2022/10/15 06:19:35;;;;;;;32.55;28.17;;;15.50;99.90;;;15.71;98.17;100420.38;5033803;28;20045;-71
2022/10/15 06:22:04;;;;;;;36.33;28.08;;;15.50;99.90;;;15.69;98.86;100422.22;5033775;28;20068;-70
2022/10/15 06:24:32;;;;;;;37.17;29.23;;;15.40;99.90;;;15.60;98.61;100389.66;5033995;28;20045;-70
2022/10/15 06:27:01;;;;;;;37.47;32.08;;;15.50;99.90;;;15.72;98.73;100402.56;5033999;28;20038;-70
2022/10/15 06:29:31;;;;;;;43.38;33.85;;;15.50;99.90;;;15.73;98.93;100410.53;5049198;28;20046;-70
2022/10/15 06:32:01;;;;;;;40.40;34.17;;;15.50;99.90;;;15.10;99.11;100306.84;5033620;28;20061;-72
2022/10/15 06:34:30;;;;;;;42.05;33.90;;;15.50;99.90;;;15.80;99.23;100417.41;5033490;28;20083;-70
2022/10/15 06:36:58;;;;;;;48.20;35.95;;;15.50;99.90;;;15.78;99.12;100418.38;5033579;28;20037;-69
2022/10/15 06:39:26;;;;;;;56.85;39.15;;;15.50;99.90;;;15.76;99.39;100412.22;5033479;28;20037;-71
2022/10/15 06:41:55;;;;;;;53.05;38.08;;;15.50;99.90;;;15.74;99.77;100411.41;5033480;28;20041;-70
2022/10/15 06:44:31;;;;;;;54.35;38.38;;;15.60;99.90;;;15.87;100.00;100412.75;5048084;28;20045;-71
2022/10/15 06:47:00;;;;;;;59.28;40.92;;;15.50;99.90;;;15.76;99.87;100417.56;5048956;28;20072;-71
2022/10/15 06:49:28;;;;;;;63.80;42.97;;;15.60;99.90;;;15.72;100.00;100411.44;5033361;28;20072;-70
2022/10/15 06:51:56;;;;;;;67.60;44.08;;;15.50;99.90;;;15.84;100.00;100408.38;5033356;28;20069;-70
2022/10/15 06:54:31;;;;;;;66.93;45.00;;;15.50;99.90;;;15.80;100.00;100408.53;5033962;28;20398;-73
2022/10/15 06:56:59;;;;;;;63.75;43.55;;;15.50;99.90;;;15.76;100.00;100404.22;5033147;28;20041;-73
2022/10/15 06:59:27;;;;;;;65.95;45.28;;;15.50;99.90;;;15.71;100.00;100423.06;5033372;28;20052;-73
2022/10/15 07:01:57;;;;;;;72.30;45.42;;;15.50;99.90;;;15.51;100.00;100413.94;5033379;28;20041;-71
2022/10/15 07:04:26;;;;;;;76.38;46.42;;;15.40;99.90;;;15.46;100.00;100410.56;5033368;28;20454;-72
2022/10/15 07:06:54;;;;;;;70.38;46.20;;;15.30;99.90;;;15.53;100.00;100418.31;5048762;28;20045;-71
2022/10/15 07:09:24;;;;;;;76.82;47.33;;;15.30;99.90;;;15.57;100.00;100429.72;5033394;28;20037;-69
2022/10/15 07:11:53;;;;;;;76.15;45.92;;;15.40;99.90;;;15.50;100.00;100423.75;5032948;28;20045;-70
2022/10/15 07:14:21;;;;;;;67.38;42.35;;;15.30;99.90;;;15.45;100.00;100411.50;5032991;28;20048;-71
2022/10/15 07:16:50;;;;;;;62.80;42.17;;;15.30;99.90;;;15.44;100.00;100409.72;5033159;28;20380;-71
2022/10/15 07:19:20;;;;;;;61.63;39.90;;;15.20;99.90;;;15.45;100.00;100419.47;5033142;28;20071;-72
2022/10/15 07:21:49;;;;;;;;;;;15.20;99.90;;;15.39;100.00;100394.72;5033935;28;20052;-71
2022/10/15 07:24:18;;;;;;;49.25;34.33;;;15.30;99.90;;;15.27;100.00;100407.56;5033073;28;20341;-70
2022/10/15 07:26:47;;;;;;;50.67;32.50;;;15.10;99.90;;;15.14;100.00;100360.88;5032816;28;20041;-71
2022/10/15 07:29:16;;;;;;;42.90;31.02;;;15.10;99.90;;;15.33;100.00;100397.56;5032814;28;20049;-71
2022/10/15 07:31:46;;;;;;;43.83;30.40;;;15.10;99.90;;;15.42;100.00;100390.25;5032793;28;20064;-70
2022/10/15 07:34:17;;;;;;;45.08;31.08;;;15.20;99.90;;;15.51;100.00;100392.59;5033152;28;20137;-70
2022/10/15 07:36:46;;;;;;;44.50;31.88;;;15.30;99.90;;;15.66;100.00;100400.97;5032774;28;20045;-71
2022/10/15 07:39:17;;;;;;;45.72;32.67;;;15.40;99.90;;;15.71;100.00;100400.84;5033002;28;20045;-70
2022/10/15 07:41:46;;;;;;;38.75;28.75;;;15.50;99.90;;;15.11;100.00;100294.41;5033036;28;20132;-71
2022/10/15 07:44:14;;;;;;;36.17;27.40;;;15.50;99.90;;;15.60;100.00;100390.50;5032699;28;20045;-71
2022/10/15 07:46:42;;;;;;;34.22;26.10;;;15.40;99.90;;;15.69;100.00;100390.22;5032409;28;20051;-69
2022/10/15 07:49:11;;;;;;;42.28;31.27;;;15.40;99.90;;;15.23;100.00;100333.97;5032919;28;20064;-72
2022/10/15 07:51:39;;;;;;;43.47;32.17;;;15.40;99.90;;;15.53;100.00;100396.09;5032859;28;20073;-70
2022/10/15 07:54:08;;;;;;;42.83;31.90;;;15.40;99.90;;;15.61;100.00;100380.72;5032785;28;20388;-71
2022/10/15 07:56:37;;;;;;;43.07;31.07;;;15.40;99.90;;;15.56;100.00;100396.91;5035057;28;20050;-71
2022/10/15 07:59:05;;;;;;;44.03;33.97;;;15.40;99.90;;;15.54;100.00;100392.53;5052364;28;20394;-72
2022/10/15 08:01:34;;;;;;;45.03;34.58;;;15.40;99.90;;;14.85;100.00;100281.91;5036447;28;20426;-68
2022/10/15 08:04:03;;;;;;;50.38;35.28;;;15.30;99.90;;;15.29;100.00;100376.41;5037016;28;20472;-69
2022/10/15 08:06:32;;;;;;;50.00;37.47;;;15.30;99.90;;;15.38;100.00;100349.47;5037338;28;20042;-70
2022/10/15 08:09:00;;;;;;;53.85;38.00;;;15.30;99.90;;;15.33;100.00;100372.69;5036742;28;20041;-70
2022/10/15 08:11:30;;;;;;;59.67;40.83;;;15.20;99.90;;;15.42;100.00;100375.13;5035060;28;20376;-69
2022/10/15 08:13:59;;;;;;;51.23;38.10;;;15.20;99.90;;;15.50;100.00;100353.56;5036323;28;20038;-69
2022/10/15 08:16:27;;;;;;;52.70;37.47;;;15.30;99.90;;;15.80;100.00;100380.06;5036201;28;20288;-69
2022/10/15 08:18:59;;;;;;;57.20;37.05;;;15.50;99.90;;;15.84;100.00;100375.50;5036416;28;20057;-68
2022/10/15 08:21:27;;;;;;;56.38;40.05;;;15.60;99.90;;;15.82;100.00;100335.56;5036148;28;20156;-69
2022/10/15 08:23:56;;;;;;;61.78;42.13;;;15.80;99.90;;;16.12;100.00;100365.66;5034880;28;20064;-70
2022/10/15 08:26:34;;;;;;;66.00;42.45;;;16.00;99.90;;;16.19;100.00;100368.03;5036197;28;20072;-70
2022/10/15 08:29:03;;;;;;;63.70;43.33;;;16.00;99.90;;;15.93;100.00;100312.03;5036099;28;20038;-71
2022/10/15 08:31:32;;;;;;;64.53;42.50;;;16.10;99.90;;;16.18;100.00;100344.94;5035838;28;20041;-70
2022/10/15 08:34:00;;;;;;;58.38;40.28;;;16.10;99.90;;;16.36;100.00;100369.22;5051515;28;20148;-70
2022/10/15 08:36:29;;;;;;;58.72;39.15;;;16.20;99.90;;;16.27;100.00;100373.09;5034658;28;20037;-71
2022/10/15 08:38:58;;;;;;;57.08;39.60;;;16.10;99.90;;;15.78;100.00;100280.56;5035797;28;20047;-70
2022/10/15 08:41:35;;;;;;;55.92;39.50;;;16.10;99.90;;;15.73;99.82;100277.22;5034671;28;20045;-70
2022/10/15 08:44:05;;;;;;;55.28;39.80;;;16.10;99.90;;;16.15;100.00;100365.53;5051582;28;20041;-69
2022/10/15 08:46:38;;;;;;;53.38;38.17;;;16.00;99.90;;;16.25;100.00;100361.59;5035429;28;20038;-71
2022/10/15 08:49:14;;;;;;;56.05;39.78;;;16.00;99.90;;;16.31;100.00;100360.50;5034548;28;20053;-70
2022/10/15 08:51:52;;;;;;;50.15;36.08;;;16.10;99.90;;;16.47;100.00;100359.94;5035876;28;20563;-69
2022/10/15 08:54:20;;;;;;;44.10;32.25;;;16.30;99.90;;;16.46;99.34;100360.84;5036045;28;20056;-70
2022/10/15 08:57:02;;;;;;;41.70;28.90;;;16.30;99.90;;;16.27;99.43;100370.44;5035651;28;20049;-74
2022/10/15 08:59:37;;;;;;;42.63;30.45;;;16.20;99.90;;;16.15;99.95;100331.72;5035553;28;20047;-73
2022/10/15 09:02:17;;;;;;;36.92;28.52;;;16.20;99.90;;;16.25;100.00;100348.25;5035674;28;20407;-72
2022/10/15 09:04:54;;;;;;;41.08;30.48;;;16.20;99.90;;;16.33;100.00;100358.66;5035646;28;20411;-71
2022/10/15 09:07:30;;;;;;;39.75;30.65;;;16.20;99.90;;;16.35;100.00;100357.69;5034285;28;20045;-69
2022/10/15 09:10:11;;;;;;;43.53;32.90;;;16.20;99.90;;;16.31;100.00;100350.72;5035305;28;20555;-70
2022/10/15 09:12:51;;;;;;;42.45;33.50;;;16.20;99.90;;;16.35;100.00;100357.69;5034167;28;20056;-71
2022/10/15 09:15:21;;;;;;;41.17;32.75;;;16.10;99.90;;;16.18;100.00;100342.25;5035242;28;20088;-67
2022/10/15 09:17:55;;;;;;;40.17;32.75;;;16.10;99.90;;;16.05;100.00;100348.97;5050678;28;20403;-68
2022/10/15 09:20:32;;;;;;;41.92;31.88;;;15.90;99.90;;;15.96;100.00;100351.09;5035385;28;20455;-73
2022/10/15 09:23:01;;;;;;;43.40;33.85;;;15.80;99.90;;;15.84;100.00;100336.38;5035002;28;20041;-71
2022/10/15 09:25:36;;;;;;;42.15;34.17;;;15.70;99.90;;;15.92;100.00;100344.09;5034775;28;20044;-70
2022/10/15 09:28:15;;;;;;;43.67;34.75;;;15.70;99.90;;;15.86;100.00;100339.88;5034968;28;20438;-70
2022/10/15 09:30:49;;;;;;;40.75;30.42;;;15.70;99.90;;;15.79;100.00;100348.13;5034640;28;20070;-71
2022/10/15 09:33:33;;;;;;;42.22;33.33;;;15.70;99.90;;;15.86;100.00;100337.19;5033041;28;20049;-70
2022/10/15 09:36:23;;;;;;;41.63;32.85;;;15.70;99.90;;;15.95;100.00;100342.19;5035020;28;20411;-71
2022/10/15 09:39:05;;;;;;;37.60;31.55;;;15.70;99.90;;;15.98;100.00;100330.56;5034630;28;20667;-69
2022/10/15 09:41:50;;;;;;;37.67;30.77;;;15.80;99.90;;;16.17;100.00;100337.88;5034894;28;20049;-70
2022/10/15 09:44:25;;;;;;;36.42;29.73;;;15.90;99.90;;;16.04;100.00;100330.34;5050200;28;20526;-71
2022/10/15 09:46:53;;;;;;;34.90;29.20;;;15.80;99.90;;;16.25;100.00;100332.25;5034776;28;20128;-68
2022/10/15 09:49:26;;;;;;;33.35;27.75;;;16.00;99.90;;;16.27;100.00;100328.63;5034672;28;20037;-69
2022/10/15 09:52:09;;;;;;;35.03;28.63;;;16.00;99.90;;;15.72;100.00;100250.56;5034449;28;20410;-70
2022/10/15 09:54:46;;;;;;;30.50;25.88;;;15.90;99.90;;;16.18;100.00;100320.91;5034434;28;20076;-70
2022/10/15 09:57:17;;;;;;;31.02;25.30;;;15.90;99.90;;;15.83;100.00;100296.44;5034426;28;20045;-70
2022/10/15 10:00:13;;;;;;;30.73;25.42;;;15.80;99.90;;;16.10;100.00;100341.66;5034357;28;20041;-70
2022/10/15 10:02:43;;;;;;;29.45;23.65;;;15.90;99.90;;;16.13;100.00;100324.69;5033241;28;20137;-72
2022/10/15 10:05:29;;;;;;;28.50;24.27;;;15.90;99.90;;;16.08;100.00;100330.19;5034442;28;20155;-70
2022/10/15 10:08:09;;;;;;;24.27;20.90;;;15.90;99.90;;;15.99;100.00;100326.97;5034067;28;20120;-70
2022/10/15 10:10:38;;;;;;;26.67;21.92;;;15.80;99.90;;;15.98;100.00;100328.78;5034634;28;20132;-70
2022/10/15 10:13:24;;;;;;;22.70;20.05;;;15.80;99.90;;;15.97;100.00;100327.00;5033015;28;20046;-70
2022/10/15 10:15:57;;;;;;;22.45;18.77;;;15.80;99.90;;;15.20;100.00;100198.19;5034617;28;20072;-70
2022/10/15 10:18:27;;;;;;;20.40;18.05;;;15.80;99.90;;;15.97;100.00;100326.13;5034015;28;20084;-70
2022/10/15 10:20:58;;;;;;;19.85;17.73;;;15.80;99.90;;;15.97;100.00;100324.34;5049686;28;20056;-70
2022/10/15 10:23:33;;;;;;;22.42;17.88;;;15.80;99.90;;;15.99;100.00;100322.50;5033886;28;20107;-67